Terminal Aerodrome Forecast
Issued by NWS Miami, FL

Home | Current Version | Previous Version | Text Only | Print | Product List | Glossary On
Versions: 1 2 3 4 5 6 7 8 9 10 11 12 13 14 15 16 17 18 19 20 21 22 23 24 25 26 27 28 29 30 31 32 33 34 35 36 37 38 39 40 41 42 43 44 45 46 47
000
FTUS42 KMFL 102013 AAA
TAFPBI
TAF AMD
KPBI 102013Z 1020/1118 12010KT P6SM VCTS SCT025CB BKN250
      TEMPO 1020/1021 VRB10G20KT 3SM +TSRA BKN019CB
     FM102200 13005KT P6SM SCT035 BKN250
     FM110300 12004KT P6SM SCT250=

USA.gov is the U.S. government's official web portal to all federal, state and local government web resources and services.